This is the latest recevied weather packets stored in our database for station/object OE-11061. If no packets are shown the sender has not sent any weather packets the latest 10 day(s).
| Time | Temp. | Humidity | Pressure | Rain* | Wind** | Luminosity | Snow |
|---|---|---|---|---|---|---|---|
| 1787943320 | 18.89° C | 95% | 1014.1 hPa | 0 mm | - | 0 W/m² | - |
| 1787942494 | 19.44° C | 95% | 1014 hPa | 0 mm | - | 0 W/m² | - |
| 1787942107 | 18.89° C | 94% | 1014.2 hPa | 0 mm | - | 0 W/m² | - |
| 1787940694 | 19.44° C | 93% | 1014 hPa | 0 mm | - | 0 W/m² | - |
| 1787940320 | 19.44° C | 92% | 1013.9 hPa | 0 mm | - | 7 W/m² | - |
| 1787939720 | 19.44° C | 93% | 1013.9 hPa | 0 mm | - | 15 W/m² | - |
| 1787938894 | 19.44° C | 92% | 1014.1 hPa | 0 mm | - | 22 W/m² | - |
| 1787938521 | 20° C | 91% | 1014.3 hPa | 0 mm | - | 30 W/m² | - |
| 1787937921 | 20° C | 91% | 1014.8 hPa | 0 mm | - | 52 W/m² | - |
| 1787937094 | 20° C | 91% | 1014.6 hPa | 0 mm | - | 67 W/m² | - |
| 1787936720 | 20° C | 92% | 1014.6 hPa | 2.03 mm | - | 97 W/m² | - |
| 1787936120 | 20.56° C | 88% | 1014.5 hPa | 2.79 mm | - | 112 W/m² | - |
| 1787935294 | 20.56° C | 92% | 1014.8 hPa | 2.79 mm | - | 194 W/m² | - |
| 1787934921 | 20.56° C | 92% | 1014.8 hPa | 2.79 mm | - | 284 W/m² | - |
| 1787934321 | 20.56° C | 92% | 1015 hPa | 3.56 mm | - | 119 W/m² | - |
| 1787933494 | 20.56° C | 91% | 1014.9 hPa | 5.08 mm | - | 202 W/m² | - |
| 1787933121 | 20.56° C | 93% | 1014.6 hPa | 5.08 mm | - | 366 W/m² | - |
| 1787932521 | 20.56° C | 94% | 1015.2 hPa | 3.05 mm | - | 142 W/m² | - |
| 1787931694 | 20° C | 92% | 1017 hPa | 2.29 mm | - | 7 W/m² | - |
| 1787931321 | 20° C | 90% | 1015.2 hPa | 2.29 mm | - | 30 W/m² | - |
| 1787930721 | 20.56° C | 89% | 1015.4 hPa | 2.29 mm | - | 30 W/m² | - |
| 1787929894 | 21.11° C | 87% | 1015.6 hPa | 1.52 mm | - | 15 W/m² | - |
| 1787929520 | 23.33° C | 74% | 1014.3 hPa | 0 mm | - | 15 W/m² | - |
| 1787928920 | 23.33° C | 72% | 1014.4 hPa | 0 mm | - | 30 W/m² | - |
| 1787928094 | 23.89° C | 67% | 1013.1 hPa | 0 mm | - | 75 W/m² | - |
* Rain latest hour (hover to see other rain measurements)
** Current wind speed in m/s (hover to see current wind gust speed)